createdAt,value
2023-03-26T00:01:51.079Z,100.00
2023-03-26T00:04:21.776Z,100.00
2023-03-26T00:06:50.314Z,100.00
2023-03-26T00:09:18.464Z,100.00
2023-03-26T00:11:46.715Z,100.00
2023-03-26T00:14:17.509Z,100.00
2023-03-26T00:16:47.490Z,100.00
2023-03-26T00:19:15.501Z,100.00
2023-03-26T00:21:43.017Z,100.00
2023-03-26T00:24:15.244Z,100.00
2023-03-26T00:26:43.592Z,100.00
2023-03-26T00:29:13.435Z,100.00
2023-03-26T00:31:41.123Z,100.00
2023-03-26T00:34:10.454Z,100.00
2023-03-26T00:36:37.864Z,100.00
2023-03-26T00:39:05.754Z,100.00
2023-03-26T00:41:36.869Z,100.00
2023-03-26T00:44:04.549Z,100.00
2023-03-26T00:46:32.819Z,100.00
2023-03-26T00:49:01.702Z,100.00
2023-03-26T00:51:29.688Z,100.00
2023-03-26T00:53:57.945Z,100.00
2023-03-26T00:56:26.011Z,100.00
2023-03-26T00:58:53.348Z,100.00
2023-03-26T01:01:27.858Z,100.00
2023-03-26T01:04:08.773Z,100.00
2023-03-26T01:06:45.175Z,100.00
2023-03-26T01:09:16.536Z,100.00
2023-03-26T01:11:44.516Z,100.00
2023-03-26T01:14:17.869Z,100.00
2023-03-26T01:16:56.995Z,100.00
2023-03-26T01:19:38.232Z,100.00
2023-03-26T01:22:11.878Z,100.00
2023-03-26T01:24:40.899Z,100.00
2023-03-26T01:27:09.608Z,100.00
2023-03-26T01:29:43.993Z,100.00
2023-03-26T01:32:21.119Z,100.00
2023-03-26T01:35:14.688Z,100.00
2023-03-26T01:38:00.285Z,100.00
2023-03-26T01:40:43.027Z,100.00
2023-03-26T01:43:22.273Z,100.00
2023-03-26T01:45:50.647Z,100.00
2023-03-26T01:48:18.651Z,100.00
2023-03-26T01:50:46.083Z,100.00
2023-03-26T01:53:14.422Z,100.00
2023-03-26T01:55:49.690Z,100.00
2023-03-26T01:58:30.811Z,100.00
2023-03-26T02:01:12.663Z,100.00
2023-03-26T02:03:49.441Z,100.00
2023-03-26T02:06:39.690Z,100.00
2023-03-26T02:09:09.523Z,100.00
2023-03-26T02:11:38.342Z,100.00
2023-03-26T02:14:06.876Z,100.00
2023-03-26T02:16:34.382Z,100.00
2023-03-26T02:19:01.880Z,100.00
2023-03-26T02:21:29.541Z,100.00
2023-03-26T02:24:02.544Z,100.00
2023-03-26T02:26:34.234Z,100.00
2023-03-26T02:29:08.645Z,100.00
2023-03-26T02:31:37.841Z,100.00
2023-03-26T02:34:05.451Z,100.00
2023-03-26T02:36:35.906Z,100.00
2023-03-26T02:39:04.922Z,100.00
2023-03-26T02:41:35.975Z,100.00
2023-03-26T02:44:08.166Z,100.00
2023-03-26T02:46:54.382Z,100.00
2023-03-26T02:49:40.644Z,100.00
2023-03-26T02:52:08.315Z,100.00
2023-03-26T02:54:37.077Z,100.00
2023-03-26T02:57:07.561Z,100.00
2023-03-26T02:59:54.896Z,100.00
2023-03-26T03:02:40.299Z,100.00
2023-03-26T03:05:26.736Z,100.00
2023-03-26T03:08:14.424Z,100.00
2023-03-26T03:11:02.746Z,100.00
2023-03-26T03:13:40.198Z,100.00
2023-03-26T03:16:08.869Z,100.00
2023-03-26T03:18:36.643Z,100.00
2023-03-26T03:21:06.100Z,100.00
2023-03-26T03:23:33.745Z,100.00
2023-03-26T03:26:18.118Z,100.00
2023-03-26T03:28:51.408Z,100.00
2023-03-26T03:31:19.093Z,100.00
2023-03-26T03:33:46.697Z,100.00
2023-03-26T03:36:21.972Z,100.00
2023-03-26T03:39:02.279Z,100.00
2023-03-26T03:41:30.667Z,100.00
2023-03-26T03:44:01.493Z,100.00
2023-03-26T03:46:31.182Z,100.00
2023-03-26T03:48:58.869Z,100.00
2023-03-26T03:51:31.490Z,100.00
2023-03-26T03:54:01.225Z,100.00
2023-03-26T03:57:02.250Z,100.00
2023-03-26T03:59:54.244Z,100.00
2023-03-26T04:02:26.748Z,100.00
2023-03-26T04:04:59.075Z,100.00
2023-03-26T04:07:28.490Z,100.00
2023-03-26T04:10:06.676Z,100.00
2023-03-26T04:12:56.870Z,100.00
2023-03-26T04:15:41.123Z,100.00
2023-03-26T04:18:10.637Z,100.00
2023-03-26T04:20:46.632Z,100.00
2023-03-26T04:23:21.223Z,100.00
2023-03-26T04:25:54.064Z,100.00
2023-03-26T04:28:53.404Z,100.00
2023-03-26T04:31:29.140Z,100.00
2023-03-26T04:34:01.543Z,100.00
2023-03-26T04:36:32.144Z,100.00
2023-03-26T04:39:02.624Z,100.00
2023-03-26T04:41:49.991Z,100.00
2023-03-26T04:44:22.371Z,100.00
2023-03-26T04:47:00.990Z,100.00
2023-03-26T04:49:35.614Z,100.00
2023-03-26T04:52:03.226Z,100.00
2023-03-26T04:54:59.670Z,100.00
2023-03-26T04:57:37.070Z,100.00
2023-03-26T05:00:19.308Z,100.00
2023-03-26T05:02:56.225Z,100.00
2023-03-26T05:05:24.939Z,100.00
2023-03-26T05:07:52.572Z,100.00
2023-03-26T05:10:22.060Z,100.00
2023-03-26T05:12:57.669Z,100.00
2023-03-26T05:15:31.910Z,100.00
2023-03-26T05:17:59.337Z,100.00
2023-03-26T05:20:35.941Z,100.00
2023-03-26T05:23:07.355Z,100.00
2023-03-26T05:25:37.743Z,100.00
2023-03-26T05:28:12.163Z,100.00
2023-03-26T05:30:48.377Z,100.00
2023-03-26T05:33:16.389Z,100.00
2023-03-26T05:36:03.675Z,100.00
2023-03-26T05:38:32.940Z,100.00
2023-03-26T05:41:03.739Z,100.00
2023-03-26T05:43:32.102Z,100.00
2023-03-26T05:46:15.390Z,100.00
2023-03-26T05:48:43.529Z,100.00
2023-03-26T05:51:12.372Z,100.00
2023-03-26T05:53:43.405Z,100.00
2023-03-26T05:56:29.168Z,100.00
2023-03-26T05:59:16.214Z,100.00
2023-03-26T06:02:23.027Z,100.00
2023-03-26T06:05:16.736Z,100.00
2023-03-26T06:08:08.399Z,100.00
2023-03-26T06:10:39.175Z,100.00
2023-03-26T06:13:06.834Z,100.00
2023-03-26T06:15:37.645Z,100.00
2023-03-26T06:18:26.082Z,100.00
2023-03-26T06:21:16.795Z,100.00
2023-03-26T06:23:50.095Z,100.00
2023-03-26T06:26:35.793Z,100.00
2023-03-26T06:29:22.465Z,100.00
2023-03-26T06:31:57.079Z,100.00
2023-03-26T06:34:42.531Z,100.00
2023-03-26T06:37:09.919Z,100.00
2023-03-26T06:39:37.619Z,100.00
2023-03-26T06:42:15.728Z,100.00
2023-03-26T06:45:01.269Z,100.00
2023-03-26T06:47:34.849Z,100.00
2023-03-26T06:50:20.899Z,100.00
2023-03-26T06:53:14.390Z,100.00
2023-03-26T06:55:55.316Z,100.00
2023-03-26T06:58:34.300Z,100.00
2023-03-26T07:01:20.299Z,100.00
2023-03-26T07:04:06.342Z,100.00
2023-03-26T07:06:59.840Z,100.00
2023-03-26T07:09:45.617Z,100.00
2023-03-26T07:12:39.089Z,100.00
2023-03-26T07:15:21.621Z,100.00
2023-03-26T07:18:09.415Z,100.00
2023-03-26T07:20:39.098Z,100.00
2023-03-26T07:23:07.385Z,100.00
2023-03-26T07:26:28.824Z,100.00
2023-03-26T07:29:18.589Z,100.00
2023-03-26T07:32:40.555Z,100.00
2023-03-26T07:35:40.987Z,100.00
2023-03-26T07:38:47.757Z,100.00
2023-03-26T07:42:14.350Z,100.00
2023-03-26T07:45:24.739Z,100.00
2023-03-26T07:48:19.180Z,100.00
2023-03-26T07:51:05.800Z,100.00
2023-03-26T07:53:49.588Z,100.00
2023-03-26T07:56:45.204Z,100.00
2023-03-26T08:00:00.569Z,100.00
2023-03-26T08:03:07.554Z,100.00
2023-03-26T08:06:14.596Z,100.00
2023-03-26T08:09:46.624Z,100.00
2023-03-26T08:12:54.402Z,100.00
2023-03-26T08:15:29.195Z,100.00
2023-03-26T08:18:06.424Z,100.00
2023-03-26T08:20:41.597Z,100.00
2023-03-26T08:23:21.880Z,100.00
2023-03-26T08:26:05.092Z,100.00
2023-03-26T08:28:37.920Z,100.00
2023-03-26T08:31:05.876Z,100.00
2023-03-26T08:33:36.004Z,100.00
2023-03-26T08:36:04.758Z,100.00
2023-03-26T08:38:32.163Z,100.00
2023-03-26T08:41:05.252Z,100.00
2023-03-26T08:44:02.789Z,100.00
2023-03-26T08:47:04.423Z,100.00
2023-03-26T08:49:50.311Z,100.00
2023-03-26T08:52:50.393Z,100.00
2023-03-26T08:55:50.593Z,100.00
2023-03-26T08:58:42.509Z,100.00
2023-03-26T09:01:34.862Z,100.00
2023-03-26T09:04:23.911Z,100.00
2023-03-26T09:07:06.988Z,100.00
2023-03-26T09:09:53.235Z,100.00
2023-03-26T09:12:39.188Z,100.00
2023-03-26T09:15:10.082Z,100.00
2023-03-26T09:17:46.522Z,100.00
2023-03-26T09:20:34.067Z,100.00
2023-03-26T09:23:19.556Z,100.00
2023-03-26T09:26:04.480Z,100.00
2023-03-26T09:28:59.113Z,100.00
2023-03-26T09:32:03.329Z,100.00
2023-03-26T09:34:57.080Z,100.00
2023-03-26T09:37:26.893Z,100.00
2023-03-26T09:40:18.754Z,100.00
2023-03-26T09:42:46.223Z,100.00
2023-03-26T09:45:50.871Z,100.00
2023-03-26T09:48:27.107Z,100.00
2023-03-26T09:51:03.939Z,100.00
2023-03-26T09:53:57.958Z,100.00
2023-03-26T09:56:39.737Z,100.00
2023-03-26T09:59:26.136Z,100.00
2023-03-26T10:02:16.491Z,100.00
2023-03-26T10:05:10.165Z,100.00
2023-03-26T10:07:57.082Z,100.00
2023-03-26T10:10:34.177Z,100.00
2023-03-26T10:13:14.789Z,100.00
2023-03-26T10:16:01.200Z,100.00
2023-03-26T10:18:49.938Z,100.00
2023-03-26T10:21:53.246Z,100.00
2023-03-26T10:24:21.069Z,100.00
2023-03-26T10:27:09.940Z,100.00
2023-03-26T10:29:59.423Z,100.00
2023-03-26T10:32:37.914Z,100.00
2023-03-26T10:35:22.359Z,100.00
2023-03-26T10:38:16.301Z,100.00
2023-03-26T10:41:00.584Z,100.00
2023-03-26T10:43:57.711Z,100.00
2023-03-26T10:47:00.212Z,100.00
2023-03-26T10:49:36.148Z,100.00
2023-03-26T10:52:06.853Z,100.00
2023-03-26T10:55:06.657Z,100.00
2023-03-26T10:57:49.969Z,100.00
2023-03-26T11:00:25.573Z,100.00
2023-03-26T11:03:05.019Z,96.32
2023-03-26T11:05:52.821Z,88.56
2023-03-26T11:08:37.856Z,93.19
2023-03-26T11:11:11.136Z,92.93
2023-03-26T11:13:58.724Z,86.76
2023-03-26T11:16:44.182Z,89.58
2023-03-26T11:19:20.941Z,96.32
2023-03-26T11:22:07.974Z,99.71
2023-03-26T11:24:44.208Z,97.39
2023-03-26T11:27:15.314Z,100.00
2023-03-26T11:30:09.326Z,96.73
2023-03-26T11:32:42.986Z,99.31
2023-03-26T11:35:40.640Z,94.73
2023-03-26T11:38:22.015Z,91.95
2023-03-26T11:40:53.272Z,96.35
2023-03-26T11:43:36.727Z,90.50
2023-03-26T11:46:07.432Z,88.91
2023-03-26T11:48:34.837Z,90.99
2023-03-26T11:51:07.693Z,82.25
2023-03-26T11:53:39.348Z,80.43
2023-03-26T11:56:18.935Z,76.87
2023-03-26T11:59:05.877Z,70.61
2023-03-26T12:02:18.895Z,68.64
2023-03-26T12:04:55.140Z,72.34
2023-03-26T12:07:33.864Z,76.63
2023-03-26T12:10:17.873Z,85.02
2023-03-26T12:12:47.947Z,100.00
2023-03-26T12:15:20.357Z,100.00
2023-03-26T12:17:55.874Z,100.00
2023-03-26T12:20:26.313Z,100.00
2023-03-26T12:22:59.333Z,100.00
2023-03-26T12:25:40.180Z,100.00
2023-03-26T12:28:13.793Z,100.00
2023-03-26T12:30:45.016Z,100.00
2023-03-26T12:33:29.649Z,100.00
2023-03-26T12:35:58.410Z,100.00
2023-03-26T12:38:40.618Z,100.00
2023-03-26T12:41:08.612Z,100.00
2023-03-26T12:44:49.858Z,100.00
2023-03-26T12:47:54.509Z,100.00
2023-03-26T12:49:35.470Z,100.00
2023-03-26T12:52:49.039Z,100.00
2023-03-26T12:56:00.612Z,100.00
2023-03-26T12:58:41.087Z,100.00
2023-03-26T13:01:46.449Z,100.00
2023-03-26T13:04:37.877Z,99.08
2023-03-26T13:07:22.104Z,95.82
2023-03-26T13:09:55.975Z,93.23
2023-03-26T13:13:07.533Z,88.00
2023-03-26T13:15:44.308Z,76.02
2023-03-26T13:18:43.595Z,68.56
2023-03-26T13:21:21.962Z,63.72
2023-03-26T13:24:04.574Z,68.46
2023-03-26T13:26:59.736Z,64.34
2023-03-26T13:29:57.124Z,59.71
2023-03-26T13:32:37.824Z,61.42
2023-03-26T13:35:46.448Z,62.91
2023-03-26T13:38:38.415Z,60.55
2023-03-26T13:41:30.881Z,60.08
2023-03-26T13:44:24.381Z,64.19
2023-03-26T13:47:00.659Z,64.98
2023-03-26T13:50:03.978Z,66.81
2023-03-26T13:52:39.958Z,71.77
2023-03-26T13:55:29.533Z,72.30
2023-03-26T13:58:08.682Z,72.52
2023-03-26T14:01:04.248Z,68.85
2023-03-26T14:04:05.734Z,67.98
2023-03-26T14:06:48.870Z,68.46
2023-03-26T14:09:32.090Z,72.08
2023-03-26T14:12:21.577Z,76.21
2023-03-26T14:15:05.833Z,76.75
2023-03-26T14:17:39.102Z,80.49
2023-03-26T14:20:19.905Z,81.02
2023-03-26T14:22:51.443Z,82.69
2023-03-26T14:25:48.006Z,81.84
2023-03-26T14:28:34.186Z,86.00
2023-03-26T14:31:20.562Z,88.30
2023-03-26T14:33:53.730Z,88.86
2023-03-26T14:36:38.965Z,89.96
2023-03-26T14:39:32.132Z,90.54
2023-03-26T14:42:08.089Z,88.92
2023-03-26T14:44:56.362Z,91.80
2023-03-26T14:47:27.158Z,90.23
2023-03-26T14:50:04.007Z,87.84
2023-03-26T14:52:34.375Z,88.99
2023-03-26T14:55:04.393Z,89.45
2023-03-26T14:57:57.590Z,92.49
2023-03-26T15:00:45.994Z,93.66
2023-03-26T15:03:13.514Z,94.94
2023-03-26T15:06:26.710Z,95.95
2023-03-26T15:09:32.740Z,96.30
2023-03-26T15:12:25.648Z,100.00
2023-03-26T15:15:40.382Z,100.00
2023-03-26T15:18:26.588Z,100.00
2023-03-26T15:21:31.701Z,100.00
2023-03-26T15:24:13.756Z,100.00
2023-03-26T15:27:18.649Z,100.00
2023-03-26T15:30:23.340Z,100.00
2023-03-26T15:33:18.086Z,100.00
2023-03-26T15:36:03.613Z,100.00
2023-03-26T15:38:56.050Z,100.00
2023-03-26T15:41:28.499Z,100.00
2023-03-26T15:44:24.556Z,100.00
2023-03-26T15:46:57.621Z,100.00
2023-03-26T15:49:36.054Z,100.00
2023-03-26T15:52:23.957Z,100.00
2023-03-26T15:55:26.388Z,100.00
2023-03-26T15:58:02.614Z,100.00
2023-03-26T16:00:34.271Z,100.00
2023-03-26T16:03:12.769Z,100.00
2023-03-26T16:06:11.325Z,100.00
2023-03-26T16:08:47.662Z,100.00
2023-03-26T16:11:15.497Z,100.00
2023-03-26T16:14:31.969Z,100.00
2023-03-26T16:17:00.024Z,100.00
2023-03-26T16:19:36.217Z,100.00
2023-03-26T16:22:07.536Z,100.00
2023-03-26T16:24:37.208Z,100.00
2023-03-26T16:27:25.665Z,100.00
2023-03-26T16:30:11.875Z,100.00
2023-03-26T16:32:46.632Z,100.00
2023-03-26T16:35:13.936Z,100.00
2023-03-26T16:38:06.029Z,100.00
2023-03-26T16:40:42.570Z,100.00
2023-03-26T16:43:40.914Z,100.00
2023-03-26T16:46:30.495Z,100.00
2023-03-26T16:49:05.655Z,100.00
2023-03-26T16:52:14.996Z,100.00
2023-03-26T16:54:52.615Z,100.00
2023-03-26T16:57:28.069Z,100.00
2023-03-26T17:00:07.369Z,100.00
2023-03-26T17:02:50.334Z,100.00
2023-03-26T17:05:21.140Z,100.00
2023-03-26T17:07:53.436Z,100.00
2023-03-26T17:10:40.234Z,100.00
2023-03-26T17:13:36.617Z,100.00
2023-03-26T17:16:25.598Z,100.00
2023-03-26T17:19:25.295Z,100.00
2023-03-26T17:22:22.098Z,100.00
2023-03-26T17:25:06.219Z,100.00
2023-03-26T17:28:20.069Z,100.00
2023-03-26T17:31:17.863Z,100.00
2023-03-26T17:33:45.564Z,100.00
2023-03-26T17:36:12.884Z,100.00
2023-03-26T17:38:40.115Z,100.00
2023-03-26T17:41:16.402Z,100.00
2023-03-26T17:43:52.148Z,100.00
2023-03-26T17:46:38.692Z,100.00
2023-03-26T17:49:26.608Z,100.00
2023-03-26T17:52:16.916Z,100.00
2023-03-26T17:54:49.662Z,100.00
2023-03-26T17:57:33.778Z,100.00
2023-03-26T18:00:01.682Z,100.00
2023-03-26T18:02:42.314Z,100.00
2023-03-26T18:05:12.611Z,100.00
2023-03-26T18:07:44.018Z,100.00
2023-03-26T18:10:17.935Z,100.00
2023-03-26T18:13:15.991Z,100.00
2023-03-26T18:16:21.199Z,100.00
2023-03-26T18:18:59.015Z,100.00
2023-03-26T18:21:36.034Z,100.00
2023-03-26T18:24:05.442Z,100.00
2023-03-26T18:26:36.715Z,100.00
2023-03-26T18:29:27.666Z,100.00
2023-03-26T18:32:22.113Z,100.00
2023-03-26T18:34:58.757Z,100.00
2023-03-26T18:37:34.190Z,100.00
2023-03-26T18:40:24.839Z,100.00
2023-03-26T18:42:55.124Z,100.00
2023-03-26T18:45:34.008Z,100.00
2023-03-26T18:48:13.841Z,100.00
2023-03-26T18:50:42.499Z,100.00
2023-03-26T18:53:20.627Z,100.00
2023-03-26T18:55:50.556Z,100.00
2023-03-26T18:58:23.071Z,100.00
2023-03-26T19:00:52.916Z,100.00
2023-03-26T19:03:24.289Z,100.00
2023-03-26T19:05:53.698Z,100.00
2023-03-26T19:08:23.715Z,100.00
2023-03-26T19:10:52.619Z,100.00
2023-03-26T19:13:23.676Z,100.00
2023-03-26T19:15:52.808Z,100.00
2023-03-26T19:18:24.000Z,100.00
2023-03-26T19:21:02.961Z,100.00
2023-03-26T19:23:38.158Z,100.00
2023-03-26T19:26:09.236Z,100.00
2023-03-26T19:28:51.450Z,100.00
2023-03-26T19:31:25.891Z,100.00
2023-03-26T19:34:17.909Z,100.00
2023-03-26T19:36:58.307Z,100.00
2023-03-26T19:42:06.470Z,100.00
2023-03-26T19:44:39.468Z,100.00
2023-03-26T19:47:14.023Z,100.00
2023-03-26T19:49:52.912Z,100.00
2023-03-26T19:52:24.852Z,100.00
2023-03-26T19:55:02.116Z,100.00
2023-03-26T19:57:36.325Z,100.00
2023-03-26T20:00:13.180Z,100.00
2023-03-26T20:02:42.358Z,100.00
2023-03-26T20:05:22.935Z,100.00
2023-03-26T20:07:50.825Z,100.00
2023-03-26T20:10:18.503Z,100.00
2023-03-26T20:12:45.943Z,100.00
2023-03-26T20:15:23.443Z,100.00
2023-03-26T20:17:54.376Z,100.00
2023-03-26T20:20:24.683Z,100.00
2023-03-26T20:22:55.797Z,100.00
2023-03-26T20:25:34.727Z,100.00
2023-03-26T20:28:02.382Z,100.00
2023-03-26T20:33:12.416Z,100.00
2023-03-26T20:35:41.450Z,100.00
2023-03-26T20:38:09.683Z,100.00
2023-03-26T20:40:38.366Z,100.00
2023-03-26T20:43:14.393Z,100.00
2023-03-26T20:45:42.024Z,100.00
2023-03-26T20:48:12.558Z,100.00
2023-03-26T20:50:50.412Z,100.00
2023-03-26T20:53:18.919Z,100.00
2023-03-26T20:55:46.671Z,100.00
2023-03-26T20:58:17.759Z,100.00
2023-03-26T21:00:46.530Z,100.00
2023-03-26T21:03:15.868Z,100.00
2023-03-26T21:05:43.560Z,100.00
2023-03-26T21:08:17.188Z,100.00
2023-03-26T21:10:46.055Z,100.00
2023-03-26T21:13:25.251Z,100.00
2023-03-26T21:15:53.546Z,100.00
2023-03-26T21:18:21.855Z,100.00
2023-03-26T21:21:10.765Z,100.00
2023-03-26T21:23:59.140Z,100.00
2023-03-26T21:26:31.740Z,100.00
2023-03-26T21:28:59.274Z,100.00
2023-03-26T21:31:30.866Z,100.00
2023-03-26T21:33:58.978Z,100.00
2023-03-26T21:36:27.210Z,100.00
2023-03-26T21:38:54.804Z,100.00
2023-03-26T21:41:25.213Z,100.00
2023-03-26T21:43:52.570Z,100.00
2023-03-26T21:46:20.665Z,100.00
2023-03-26T21:48:48.207Z,100.00
2023-03-26T21:51:19.281Z,100.00
2023-03-26T21:53:47.048Z,100.00
2023-03-26T21:56:40.362Z,100.00
2023-03-26T21:59:20.496Z,100.00
2023-03-26T22:02:02.900Z,100.00
2023-03-26T22:04:46.792Z,100.00
2023-03-26T22:07:20.869Z,100.00
2023-03-26T22:09:48.535Z,100.00
2023-03-26T22:12:16.854Z,100.00
2023-03-26T22:14:44.210Z,100.00
2023-03-26T22:17:11.592Z,100.00
2023-03-26T22:19:38.919Z,100.00
2023-03-26T22:22:06.229Z,100.00
2023-03-26T22:24:34.413Z,100.00
2023-03-26T22:27:01.871Z,100.00
2023-03-26T22:29:29.247Z,100.00
2023-03-26T22:31:56.623Z,100.00
2023-03-26T22:34:24.522Z,100.00
2023-03-26T22:36:53.123Z,100.00
2023-03-26T22:39:20.497Z,100.00
2023-03-26T22:41:47.949Z,100.00
2023-03-26T22:44:20.260Z,100.00
2023-03-26T22:46:51.145Z,100.00
2023-03-26T22:49:18.913Z,100.00
2023-03-26T22:51:46.784Z,100.00
2023-03-26T22:54:14.626Z,100.00
2023-03-26T22:56:43.529Z,100.00
2023-03-26T22:59:11.208Z,100.00
2023-03-26T23:01:39.058Z,100.00
2023-03-26T23:04:07.100Z,100.00
2023-03-26T23:06:34.572Z,100.00
2023-03-26T23:09:01.943Z,100.00
2023-03-26T23:11:30.668Z,100.00
2023-03-26T23:13:58.118Z,100.00
2023-03-26T23:16:26.472Z,100.00
2023-03-26T23:18:53.944Z,100.00
2023-03-26T23:21:23.010Z,100.00
2023-03-26T23:23:52.276Z,100.00
2023-03-26T23:26:19.910Z,100.00
2023-03-26T23:28:47.830Z,100.00
2023-03-26T23:31:15.241Z,100.00
2023-03-26T23:33:50.338Z,100.00
2023-03-26T23:36:19.313Z,100.00
2023-03-26T23:38:48.389Z,100.00
2023-03-26T23:41:18.805Z,100.00
2023-03-26T23:43:54.720Z,100.00
2023-03-26T23:46:30.834Z,100.00
2023-03-26T23:49:04.910Z,100.00
2023-03-26T23:51:32.930Z,100.00
2023-03-26T23:54:01.500Z,100.00
2023-03-26T23:56:32.338Z,100.00
2023-03-26T23:59:00.771Z,100.00
